CCRH weather

CLOSED Campbellton (Regional Hospital) Heliport
Campbellton, New Brunswick, Canada

Public forecast

Using degrees Celsius for public forecast. Weather courtesy of forecast.io.

METAR (pilot weather report)

Closest report is Bathurst Airport, 43.3 nm (80.2 km) ESE. Retrieved 2019/05/20 07:36 UTC (41 minutes ago):

CZBF 200736Z AUTO 00000KT 9SM -RA BKN100 OVC130 07/05 A3000 RMK SLP161

TAF (pilot weather forecast)

Closest forecast is Bathurst Airport, 43.3 nm (80.2 km) ESE. Retrieved 2019/05/20 09:42 UTC (0 seconds ago):

TAF CZBF 200838Z 2009/2021 VRB03KT P6SM -RA SCT020 OVC050 TEMPO 2009/2011 4SM -RA BR SCT007 OVC020 FM201100 10010KT 3SM -RA BR OVC015 TEMPO 2011/2014 3/4SM -RA BR OVC007 FM201400 12010G20KT 3/4SM -RA -DZ BR OVC005 RMK FCST BASED ON AUTO OBS. NXT FCST BY 201400Z